Impacts METAR Board
IDs:

KDFW - Dallas-Ft Worth Intl, TX, US

Updated at: 1800 UTC 24 Sep 2018
Potential Impact None Slight Moderate High
Time 24/06Z 24/07Z 24/08Z 24/09Z 24/10Z 24/11Z 24/12Z 24/13Z 24/14Z 24/15Z 24/16Z 24/17Z 24/18Z
Temp71 71 71 71 70 71 71 72 73 73 75 76 77
Dewpt68 68 69 69 69 69 68 68 68 68 68 67 68
Altim29.89 29.89 29.88 29.88 29.87 29.88 29.89 29.90 29.90 29.91 29.93 29.92 29.91
VIS10 10 6 5 7 7 10 10 10 10 10 10 10
CIG8 7 7 7 8 5 10 10 25 14 16 18 25
CoverOVCOVCOVCOVCOVCOVCOVCOVCOVCOVCOVCOVCOVC
FltCatIFRIFRIFRIFRIFRIFRMVFRMVFRMVFRMVFRMVFRMVFRMVFR
WX-----DZ BR-DZ BR------------------
WDir1000010300320300002602400
WSpd3 0 0 0 3 4 3 3 0 0 5 4 4
WGst-- -- -- -- -- -- -- -- -- -- -- -- --
Raw hourly METARs
KDFW 240553Z 01003KT 10SM OVC008 22/20 A2989 RMK AO2 SLP115 60000 T02170200 10217 20211 402220189 58003 $
KDFW 240653Z 00000KT 10SM OVC007 22/20 A2989 RMK AO2 SLP113 T02170200 $
KDFW 240753Z 00000KT 6SM -DZ BR OVC007 22/21 A2988 RMK AO2 DZB52 SLP113 P0000 T02170206 $
KDFW 240853Z 00000KT 5SM -DZ BR SCT004 OVC007 22/21 A2988 RMK AO2 SLP111 PCPN VRY LGT P0000 60000 T02170206 58004 $
KDFW 240953Z 01003KT 7SM FEW004 BKN008 OVC020 21/21 A2987 RMK AO2 DZE21 SLP109 P0000 T02110206 $
KDFW 241053Z 30004KT 7SM BKN005 OVC010 22/21 A2988 RMK AO2 SLP112 T02170206 $
KDFW 241153Z 32003KT 10SM OVC010 22/20 A2989 RMK AO2 SLP116 CIG 009V013 60000 T02170200 10217 20211 53005 $
KDFW 241253Z 30003KT 10SM BKN010 OVC015 22/20 A2990 RMK AO2 SLP119 T02220200 $
KDFW 241353Z 00000KT 10SM SCT014 BKN025 OVC055 23/20 A2990 RMK AO2 SLP120 T02280200
KDFW 241453Z 00000KT 10SM BKN014 OVC050 23/20 A2991 RMK AO2 SLP123 T02280200 52007
KDFW 241553Z 26005KT 10SM BKN016 OVC040 24/20 A2993 RMK AO2 SLP126 T02390200
KDFW 241653Z 24004KT 10SM BKN018 OVC026 24/19 A2992 RMK AO2 SLP125 T02440194
KDFW 241753Z VRB04KT 10SM SCT019 BKN025 OVC035 25/20 A2991 RMK AO2 SLP120 T02500200 10256 20217 58002



Page loaded:  18:13 UTC  |   11:13 AM Pacific  |   12:13 PM Mountain  |   01:13 PM Central  |   02:13 PM Eastern

 

ADVISORIES

FORECASTS

FORECASTS

OBSERVATIONS

USER TOOLS

ABOUT US